sensor_id;sensor_type;location;lat;lon;timestamp;P1;durP1;ratioP1;P2;durP2;ratioP2
47760;SDS011;33524;55.434;38.520;2022-09-09T00:00:46;14.55;;;11.55;;
47760;SDS011;33524;55.434;38.520;2022-09-09T00:03:23;14.02;;;11.38;;
47760;SDS011;33524;55.434;38.520;2022-09-09T00:08:28;16.52;;;10.32;;
47760;SDS011;33524;55.434;38.520;2022-09-09T00:11:09;14.07;;;11.35;;
47760;SDS011;33524;55.434;38.520;2022-09-09T00:13:43;16.25;;;10.90;;
47760;SDS011;33524;55.434;38.520;2022-09-09T00:16:22;19.45;;;10.77;;
47760;SDS011;33524;55.434;38.520;2022-09-09T00:24:45;15.88;;;11.12;;
47760;SDS011;33524;55.434;38.520;2022-09-09T00:29:58;17.12;;;10.15;;
47760;SDS011;33524;55.434;38.520;2022-09-09T00:32:41;16.92;;;10.68;;
47760;SDS011;33524;55.434;38.520;2022-09-09T00:37:37;14.57;;;10.82;;
47760;SDS011;33524;55.434;38.520;2022-09-09T00:40:13;15.45;;;11.85;;
47760;SDS011;33524;55.434;38.520;2022-09-09T00:42:52;16.87;;;12.10;;
47760;SDS011;33524;55.434;38.520;2022-09-09T00:48:11;15.85;;;10.38;;
47760;SDS011;33524;55.434;38.520;2022-09-09T00:50:43;14.73;;;10.75;;
47760;SDS011;33524;55.434;38.520;2022-09-09T00:56:14;15.52;;;10.38;;
47760;SDS011;33524;55.434;38.520;2022-09-09T00:58:55;15.73;;;12.25;;
47760;SDS011;33524;55.434;38.520;2022-09-09T01:01:35;17.37;;;11.75;;
47760;SDS011;33524;55.434;38.520;2022-09-09T01:04:12;16.60;;;12.73;;
47760;SDS011;33524;55.434;38.520;2022-09-09T01:06:43;15.43;;;11.85;;
47760;SDS011;33524;55.434;38.520;2022-09-09T01:12:03;16.85;;;12.23;;
47760;SDS011;33524;55.434;38.520;2022-09-09T01:14:45;18.12;;;15.43;;
47760;SDS011;33524;55.434;38.520;2022-09-09T01:28:31;18.20;;;16.30;;
47760;SDS011;33524;55.434;38.520;2022-09-09T01:31:04;17.25;;;14.90;;
47760;SDS011;33524;55.434;38.520;2022-09-09T01:33:36;17.30;;;14.48;;
47760;SDS011;33524;55.434;38.520;2022-09-09T01:38:39;17.85;;;14.15;;
47760;SDS011;33524;55.434;38.520;2022-09-09T01:41:08;20.55;;;14.85;;
47760;SDS011;33524;55.434;38.520;2022-09-09T01:43:37;16.67;;;13.55;;
47760;SDS011;33524;55.434;38.520;2022-09-09T01:46:05;16.80;;;12.40;;
47760;SDS011;33524;55.434;38.520;2022-09-09T01:48:35;18.02;;;12.60;;
47760;SDS011;33524;55.434;38.520;2022-09-09T01:51:04;16.25;;;12.95;;
47760;SDS011;33524;55.434;38.520;2022-09-09T01:53:32;16.27;;;12.88;;
47760;SDS011;33524;55.434;38.520;2022-09-09T01:58:43;18.52;;;11.73;;
47760;SDS011;33524;55.434;38.520;2022-09-09T02:04:56;17.33;;;11.45;;
47760;SDS011;33524;55.434;38.520;2022-09-09T02:07:28;15.10;;;10.80;;
47760;SDS011;33524;55.434;38.520;2022-09-09T02:10:13;16.37;;;10.25;;
47760;SDS011;33524;55.434;38.520;2022-09-09T02:12:53;15.48;;;9.63;;
47760;SDS011;33524;55.434;38.520;2022-09-09T02:15:34;16.35;;;11.85;;
47760;SDS011;33524;55.434;38.520;2022-09-09T02:18:10;14.38;;;11.27;;
47760;SDS011;33524;55.434;38.520;2022-09-09T02:20:43;13.52;;;10.55;;
47760;SDS011;33524;55.434;38.520;2022-09-09T02:23:13;13.43;;;10.23;;
47760;SDS011;33524;55.434;38.520;2022-09-09T02:25:43;12.00;;;9.50;;
47760;SDS011;33524;55.434;38.520;2022-09-09T02:28:14;14.20;;;9.93;;
47760;SDS011;33524;55.434;38.520;2022-09-09T02:30:44;11.25;;;8.45;;
47760;SDS011;33524;55.434;38.520;2022-09-09T02:33:15;12.37;;;9.25;;
47760;SDS011;33524;55.434;38.520;2022-09-09T02:35:43;16.10;;;10.57;;
47760;SDS011;33524;55.434;38.520;2022-09-09T02:38:14;12.93;;;8.35;;
47760;SDS011;33524;55.434;38.520;2022-09-09T02:40:44;15.77;;;9.02;;
47760;SDS011;33524;55.434;38.520;2022-09-09T02:43:14;14.93;;;8.70;;
47760;SDS011;33524;55.434;38.520;2022-09-09T02:45:51;10.32;;;6.93;;
47760;SDS011;33524;55.434;38.520;2022-09-09T02:48:36;11.57;;;7.30;;
47760;SDS011;33524;55.434;38.520;2022-09-09T02:51:50;12.10;;;7.28;;
47760;SDS011;33524;55.434;38.520;2022-09-09T02:57:01;9.77;;;5.30;;
47760;SDS011;33524;55.434;38.520;2022-09-09T02:59:36;7.68;;;5.35;;
47760;SDS011;33524;55.434;38.520;2022-09-09T03:02:08;7.03;;;5.25;;
47760;SDS011;33524;55.434;38.520;2022-09-09T03:04:37;6.87;;;4.72;;
47760;SDS011;33524;55.434;38.520;2022-09-09T03:07:06;7.53;;;4.35;;
47760;SDS011;33524;55.434;38.520;2022-09-09T03:09:34;8.10;;;4.40;;
47760;SDS011;33524;55.434;38.520;2022-09-09T03:12:02;6.72;;;4.07;;
47760;SDS011;33524;55.434;38.520;2022-09-09T03:14:34;8.43;;;4.32;;
47760;SDS011;33524;55.434;38.520;2022-09-09T03:17:02;10.13;;;4.68;;
47760;SDS011;33524;55.434;38.520;2022-09-09T03:19:31;7.75;;;3.67;;
47760;SDS011;33524;55.434;38.520;2022-09-09T03:21:59;6.85;;;3.67;;
47760;SDS011;33524;55.434;38.520;2022-09-09T03:24:29;6.85;;;3.85;;
47760;SDS011;33524;55.434;38.520;2022-09-09T03:26:57;8.25;;;4.37;;
47760;SDS011;33524;55.434;38.520;2022-09-09T03:29:25;6.53;;;4.47;;
47760;SDS011;33524;55.434;38.520;2022-09-09T03:31:54;6.90;;;4.65;;
47760;SDS011;33524;55.434;38.520;2022-09-09T03:34:22;6.82;;;4.62;;
47760;SDS011;33524;55.434;38.520;2022-09-09T03:36:50;7.87;;;4.62;;
47760;SDS011;33524;55.434;38.520;2022-09-09T03:39:18;6.03;;;3.83;;
47760;SDS011;33524;55.434;38.520;2022-09-09T03:41:45;6.03;;;4.40;;
47760;SDS011;33524;55.434;38.520;2022-09-09T03:44:16;7.00;;;4.40;;
47760;SDS011;33524;55.434;38.520;2022-09-09T03:46:44;9.75;;;3.55;;
47760;SDS011;33524;55.434;38.520;2022-09-09T03:49:13;6.15;;;3.55;;
47760;SDS011;33524;55.434;38.520;2022-09-09T03:51:41;6.22;;;4.07;;
47760;SDS011;33524;55.434;38.520;2022-09-09T03:54:10;6.62;;;4.07;;
47760;SDS011;33524;55.434;38.520;2022-09-09T03:56:38;7.65;;;3.90;;
47760;SDS011;33524;55.434;38.520;2022-09-09T03:59:09;7.00;;;3.95;;
47760;SDS011;33524;55.434;38.520;2022-09-09T04:01:37;12.07;;;4.95;;
47760;SDS011;33524;55.434;38.520;2022-09-09T04:04:05;5.60;;;3.72;;
47760;SDS011;33524;55.434;38.520;2022-09-09T04:06:34;8.20;;;3.65;;
47760;SDS011;33524;55.434;38.520;2022-09-09T04:09:02;6.80;;;3.75;;
47760;SDS011;33524;55.434;38.520;2022-09-09T04:11:31;6.10;;;3.65;;
47760;SDS011;33524;55.434;38.520;2022-09-09T04:13:59;7.50;;;3.90;;
47760;SDS011;33524;55.434;38.520;2022-09-09T04:16:28;7.45;;;3.40;;
47760;SDS011;33524;55.434;38.520;2022-09-09T04:18:57;7.28;;;3.97;;
47760;SDS011;33524;55.434;38.520;2022-09-09T04:21:26;6.03;;;3.65;;
47760;SDS011;33524;55.434;38.520;2022-09-09T04:23:54;7.07;;;3.22;;
47760;SDS011;33524;55.434;38.520;2022-09-09T04:26:24;4.55;;;3.10;;
47760;SDS011;33524;55.434;38.520;2022-09-09T04:28:52;5.85;;;4.20;;
47760;SDS011;33524;55.434;38.520;2022-09-09T04:31:20;4.95;;;3.00;;
47760;SDS011;33524;55.434;38.520;2022-09-09T04:33:51;5.95;;;3.78;;
47760;SDS011;33524;55.434;38.520;2022-09-09T04:36:20;5.78;;;3.20;;
47760;SDS011;33524;55.434;38.520;2022-09-09T04:38:48;5.75;;;2.30;;
47760;SDS011;33524;55.434;38.520;2022-09-09T04:41:17;4.12;;;2.60;;
47760;SDS011;33524;55.434;38.520;2022-09-09T04:43:46;4.40;;;2.05;;
47760;SDS011;33524;55.434;38.520;2022-09-09T04:46:15;4.22;;;2.40;;
47760;SDS011;33524;55.434;38.520;2022-09-09T04:48:46;4.78;;;3.30;;
47760;SDS011;33524;55.434;38.520;2022-09-09T04:51:16;3.20;;;2.15;;
47760;SDS011;33524;55.434;38.520;2022-09-09T04:53:44;3.33;;;2.10;;
47760;SDS011;33524;55.434;38.520;2022-09-09T04:56:16;3.20;;;1.95;;
47760;SDS011;33524;55.434;38.520;2022-09-09T04:58:45;5.22;;;2.62;;
47760;SDS011;33524;55.434;38.520;2022-09-09T05:01:14;3.10;;;2.12;;
47760;SDS011;33524;55.434;38.520;2022-09-09T05:03:48;5.30;;;2.42;;
47760;SDS011;33524;55.434;38.520;2022-09-09T05:06:17;3.50;;;2.50;;
47760;SDS011;33524;55.434;38.520;2022-09-09T05:08:47;3.47;;;1.87;;
47760;SDS011;33524;55.434;38.520;2022-09-09T05:11:20;2.95;;;2.03;;
47760;SDS011;33524;55.434;38.520;2022-09-09T05:13:53;5.72;;;2.60;;
47760;SDS011;33524;55.434;38.520;2022-09-09T05:16:22;3.03;;;2.40;;
47760;SDS011;33524;55.434;38.520;2022-09-09T05:18:50;4.87;;;2.58;;
47760;SDS011;33524;55.434;38.520;2022-09-09T05:21:19;4.55;;;2.17;;
47760;SDS011;33524;55.434;38.520;2022-09-09T05:23:50;5.40;;;2.15;;
47760;SDS011;33524;55.434;38.520;2022-09-09T05:26:19;3.12;;;1.75;;
47760;SDS011;33524;55.434;38.520;2022-09-09T05:28:48;3.75;;;1.95;;
47760;SDS011;33524;55.434;38.520;2022-09-09T05:31:17;2.42;;;1.30;;
47760;SDS011;33524;55.434;38.520;2022-09-09T05:33:47;3.30;;;1.60;;
47760;SDS011;33524;55.434;38.520;2022-09-09T05:36:17;5.12;;;3.33;;
47760;SDS011;33524;55.434;38.520;2022-09-09T05:38:48;4.60;;;1.80;;
47760;SDS011;33524;55.434;38.520;2022-09-09T05:41:18;7.37;;;2.97;;
47760;SDS011;33524;55.434;38.520;2022-09-09T05:43:48;3.05;;;1.67;;
47760;SDS011;33524;55.434;38.520;2022-09-09T05:46:20;2.30;;;1.33;;
47760;SDS011;33524;55.434;38.520;2022-09-09T05:48:50;2.72;;;1.50;;
47760;SDS011;33524;55.434;38.520;2022-09-09T05:51:23;4.03;;;1.90;;
47760;SDS011;33524;55.434;38.520;2022-09-09T05:53:54;4.47;;;1.33;;
47760;SDS011;33524;55.434;38.520;2022-09-09T05:56:27;1.65;;;1.20;;
47760;SDS011;33524;55.434;38.520;2022-09-09T05:58:56;2.53;;;1.45;;
47760;SDS011;33524;55.434;38.520;2022-09-09T06:01:28;2.12;;;1.20;;
47760;SDS011;33524;55.434;38.520;2022-09-09T06:03:59;1.10;;;1.00;;
47760;SDS011;33524;55.434;38.520;2022-09-09T06:06:30;0.82;;;0.82;;
47760;SDS011;33524;55.434;38.520;2022-09-09T06:09:05;0.80;;;0.80;;
47760;SDS011;33524;55.434;38.520;2022-09-09T06:11:38;1.37;;;0.85;;
47760;SDS011;33524;55.434;38.520;2022-09-09T06:14:07;4.15;;;1.23;;
47760;SDS011;33524;55.434;38.520;2022-09-09T06:16:36;1.20;;;0.93;;
47760;SDS011;33524;55.434;38.520;2022-09-09T06:19:10;0.70;;;0.70;;
47760;SDS011;33524;55.434;38.520;2022-09-09T06:21:40;1.05;;;0.75;;
47760;SDS011;33524;55.434;38.520;2022-09-09T06:24:08;0.70;;;0.70;;
47760;SDS011;33524;55.434;38.520;2022-09-09T06:26:38;1.05;;;0.98;;
47760;SDS011;33524;55.434;38.520;2022-09-09T06:29:10;0.73;;;0.70;;
47760;SDS011;33524;55.434;38.520;2022-09-09T06:31:38;1.90;;;0.80;;
47760;SDS011;33524;55.434;38.520;2022-09-09T06:34:08;1.90;;;1.00;;
47760;SDS011;33524;55.434;38.520;2022-09-09T06:36:38;1.15;;;0.80;;
47760;SDS011;33524;55.434;38.520;2022-09-09T06:39:07;0.85;;;0.55;;
47760;SDS011;33524;55.434;38.520;2022-09-09T06:41:41;0.60;;;0.60;;
47760;SDS011;33524;55.434;38.520;2022-09-09T06:44:13;0.65;;;0.65;;
47760;SDS011;33524;55.434;38.520;2022-09-09T06:46:44;0.80;;;0.70;;
47760;SDS011;33524;55.434;38.520;2022-09-09T06:49:15;0.70;;;0.70;;
47760;SDS011;33524;55.434;38.520;2022-09-09T06:51:43;1.42;;;0.82;;
47760;SDS011;33524;55.434;38.520;2022-09-09T06:54:12;1.27;;;1.05;;
47760;SDS011;33524;55.434;38.520;2022-09-09T06:56:41;0.60;;;0.60;;
47760;SDS011;33524;55.434;38.520;2022-09-09T06:59:16;1.95;;;0.57;;
47760;SDS011;33524;55.434;38.520;2022-09-09T07:01:44;1.12;;;0.80;;
47760;SDS011;33524;55.434;38.520;2022-09-09T07:04:12;0.60;;;0.60;;
47760;SDS011;33524;55.434;38.520;2022-09-09T07:06:42;0.40;;;0.37;;
47760;SDS011;33524;55.434;38.520;2022-09-09T07:09:12;2.70;;;0.55;;
47760;SDS011;33524;55.434;38.520;2022-09-09T07:11:44;1.15;;;0.80;;
47760;SDS011;33524;55.434;38.520;2022-09-09T07:14:14;1.37;;;0.73;;
47760;SDS011;33524;55.434;38.520;2022-09-09T07:16:43;3.17;;;0.90;;
47760;SDS011;33524;55.434;38.520;2022-09-09T07:19:13;1.87;;;0.80;;
47760;SDS011;33524;55.434;38.520;2022-09-09T07:21:42;1.23;;;0.73;;
47760;SDS011;33524;55.434;38.520;2022-09-09T07:24:11;0.90;;;0.50;;
47760;SDS011;33524;55.434;38.520;2022-09-09T07:26:40;0.52;;;0.52;;
47760;SDS011;33524;55.434;38.520;2022-09-09T07:29:08;1.15;;;0.60;;
47760;SDS011;33524;55.434;38.520;2022-09-09T07:31:38;1.08;;;0.52;;
47760;SDS011;33524;55.434;38.520;2022-09-09T07:34:08;1.33;;;0.80;;
47760;SDS011;33524;55.434;38.520;2022-09-09T07:36:37;1.00;;;0.68;;
47760;SDS011;33524;55.434;38.520;2022-09-09T07:39:07;0.75;;;0.62;;
47760;SDS011;33524;55.434;38.520;2022-09-09T07:41:41;2.08;;;0.93;;
47760;SDS011;33524;55.434;38.520;2022-09-09T07:44:13;2.03;;;0.90;;
47760;SDS011;33524;55.434;38.520;2022-09-09T07:46:44;2.85;;;1.25;;
47760;SDS011;33524;55.434;38.520;2022-09-09T07:49:14;0.60;;;0.60;;
47760;SDS011;33524;55.434;38.520;2022-09-09T07:51:43;0.98;;;0.85;;
47760;SDS011;33524;55.434;38.520;2022-09-09T07:54:14;1.77;;;0.75;;
47760;SDS011;33524;55.434;38.520;2022-09-09T07:56:44;1.15;;;1.00;;
47760;SDS011;33524;55.434;38.520;2022-09-09T07:59:14;2.33;;;1.55;;
47760;SDS011;33524;55.434;38.520;2022-09-09T08:01:42;1.10;;;0.80;;
47760;SDS011;33524;55.434;38.520;2022-09-09T08:04:14;0.70;;;0.70;;
47760;SDS011;33524;55.434;38.520;2022-09-09T08:06:44;1.17;;;0.70;;
47760;SDS011;33524;55.434;38.520;2022-09-09T08:09:15;1.00;;;0.65;;
47760;SDS011;33524;55.434;38.520;2022-09-09T08:11:45;0.65;;;0.60;;
47760;SDS011;33524;55.434;38.520;2022-09-09T08:14:16;1.05;;;0.60;;
47760;SDS011;33524;55.434;38.520;2022-09-09T08:16:46;1.25;;;0.88;;
47760;SDS011;33524;55.434;38.520;2022-09-09T08:19:16;1.95;;;0.90;;
47760;SDS011;33524;55.434;38.520;2022-09-09T08:21:45;0.93;;;0.73;;
47760;SDS011;33524;55.434;38.520;2022-09-09T08:24:13;1.65;;;1.10;;
47760;SDS011;33524;55.434;38.520;2022-09-09T08:26:45;1.30;;;0.77;;
47760;SDS011;33524;55.434;38.520;2022-09-09T08:29:16;0.97;;;0.60;;
47760;SDS011;33524;55.434;38.520;2022-09-09T08:31:49;0.68;;;0.62;;
47760;SDS011;33524;55.434;38.520;2022-09-09T08:34:21;1.73;;;0.90;;
47760;SDS011;33524;55.434;38.520;2022-09-09T08:36:50;1.73;;;0.90;;
47760;SDS011;33524;55.434;38.520;2022-09-09T08:39:20;2.50;;;1.60;;
47760;SDS011;33524;55.434;38.520;2022-09-09T08:47:25;1.00;;;0.88;;
47760;SDS011;33524;55.434;38.520;2022-09-09T08:52:49;1.83;;;1.02;;
47760;SDS011;33524;55.434;38.520;2022-09-09T08:55:48;1.75;;;0.57;;
47760;SDS011;33524;55.434;38.520;2022-09-09T08:58:39;0.70;;;0.50;;
47760;SDS011;33524;55.434;38.520;2022-09-09T09:04:24;0.88;;;0.68;;
47760;SDS011;33524;55.434;38.520;2022-09-09T09:10:50;0.50;;;0.50;;
47760;SDS011;33524;55.434;38.520;2022-09-09T09:13:27;4.68;;;0.95;;
47760;SDS011;33524;55.434;38.520;2022-09-09T09:16:16;1.83;;;0.93;;
47760;SDS011;33524;55.434;38.520;2022-09-09T09:19:00;0.62;;;0.62;;
47760;SDS011;33524;55.434;38.520;2022-09-09T09:23:58;1.98;;;0.80;;
47760;SDS011;33524;55.434;38.520;2022-09-09T09:26:32;1.90;;;1.00;;
47760;SDS011;33524;55.434;38.520;2022-09-09T09:29:10;0.50;;;0.50;;
47760;SDS011;33524;55.434;38.520;2022-09-09T09:31:48;0.35;;;0.32;;
47760;SDS011;33524;55.434;38.520;2022-09-09T09:34:22;2.80;;;1.45;;
47760;SDS011;33524;55.434;38.520;2022-09-09T09:36:58;2.05;;;1.05;;
47760;SDS011;33524;55.434;38.520;2022-09-09T09:39:33;0.93;;;0.70;;
47760;SDS011;33524;55.434;38.520;2022-09-09T09:42:26;1.23;;;0.60;;
47760;SDS011;33524;55.434;38.520;2022-09-09T09:44:54;0.57;;;0.50;;
47760;SDS011;33524;55.434;38.520;2022-09-09T09:47:22;0.88;;;0.70;;
47760;SDS011;33524;55.434;38.520;2022-09-09T09:49:59;0.95;;;0.77;;
47760;SDS011;33524;55.434;38.520;2022-09-09T09:52:30;0.98;;;0.52;;
47760;SDS011;33524;55.434;38.520;2022-09-09T09:55:01;3.95;;;1.05;;
47760;SDS011;33524;55.434;38.520;2022-09-09T09:57:34;0.70;;;0.70;;
47760;SDS011;33524;55.434;38.520;2022-09-09T10:02:41;1.00;;;0.70;;
47760;SDS011;33524;55.434;38.520;2022-09-09T10:05:24;0.70;;;0.70;;
47760;SDS011;33524;55.434;38.520;2022-09-09T10:08:05;1.87;;;1.30;;
47760;SDS011;33524;55.434;38.520;2022-09-09T10:19:29;1.05;;;0.70;;
47760;SDS011;33524;55.434;38.520;2022-09-09T10:33:49;1.15;;;0.90;;
47760;SDS011;33524;55.434;38.520;2022-09-09T10:36:22;1.45;;;0.90;;
47760;SDS011;33524;55.434;38.520;2022-09-09T10:39:03;0.75;;;0.70;;
47760;SDS011;33524;55.434;38.520;2022-09-09T10:53:35;2.40;;;0.93;;
47760;SDS011;33524;55.434;38.520;2022-09-09T10:56:16;1.80;;;1.23;;
47760;SDS011;33524;55.434;38.520;2022-09-09T10:58:49;1.80;;;1.20;;
47760;SDS011;33524;55.434;38.520;2022-09-09T11:01:32;1.73;;;1.10;;
47760;SDS011;33524;55.434;38.520;2022-09-09T11:04:12;1.45;;;1.10;;
47760;SDS011;33524;55.434;38.520;2022-09-09T11:06:48;0.85;;;0.80;;
47760;SDS011;33524;55.434;38.520;2022-09-09T11:09:22;0.93;;;0.80;;
47760;SDS011;33524;55.434;38.520;2022-09-09T11:11:54;2.10;;;1.02;;
47760;SDS011;33524;55.434;38.520;2022-09-09T11:17:04;4.75;;;1.87;;
47760;SDS011;33524;55.434;38.520;2022-09-09T11:22:18;0.80;;;0.80;;
47760;SDS011;33524;55.434;38.520;2022-09-09T11:24:52;2.70;;;0.93;;
47760;SDS011;33524;55.434;38.520;2022-09-09T11:27:26;1.85;;;0.88;;
47760;SDS011;33524;55.434;38.520;2022-09-09T11:38:45;0.80;;;0.80;;
47760;SDS011;33524;55.434;38.520;2022-09-09T11:41:19;1.52;;;0.93;;
47760;SDS011;33524;55.434;38.520;2022-09-09T11:43:52;2.33;;;1.33;;
47760;SDS011;33524;55.434;38.520;2022-09-09T11:46:21;2.25;;;1.10;;
47760;SDS011;33524;55.434;38.520;2022-09-09T11:49:02;2.65;;;1.20;;
47760;SDS011;33524;55.434;38.520;2022-09-09T11:51:32;1.10;;;0.88;;
47760;SDS011;33524;55.434;38.520;2022-09-09T11:54:24;5.15;;;1.80;;
47760;SDS011;33524;55.434;38.520;2022-09-09T11:59:50;6.12;;;2.28;;
47760;SDS011;33524;55.434;38.520;2022-09-09T12:02:23;5.25;;;1.90;;
47760;SDS011;33524;55.434;38.520;2022-09-09T12:07:37;1.95;;;1.10;;
47760;SDS011;33524;55.434;38.520;2022-09-09T12:10:31;3.33;;;1.08;;
47760;SDS011;33524;55.434;38.520;2022-09-09T12:16:00;3.20;;;0.98;;
47760;SDS011;33524;55.434;38.520;2022-09-09T12:21:24;1.25;;;0.80;;
47760;SDS011;33524;55.434;38.520;2022-09-09T12:26:46;1.87;;;1.02;;
47760;SDS011;33524;55.434;38.520;2022-09-09T12:32:15;1.17;;;0.75;;
47760;SDS011;33524;55.434;38.520;2022-09-09T12:39:57;1.80;;;0.93;;
47760;SDS011;33524;55.434;38.520;2022-09-09T12:42:29;1.10;;;0.80;;
47760;SDS011;33524;55.434;38.520;2022-09-09T12:44:58;0.95;;;0.82;;
47760;SDS011;33524;55.434;38.520;2022-09-09T12:50:24;0.98;;;0.90;;
47760;SDS011;33524;55.434;38.520;2022-09-09T12:52:56;1.85;;;1.17;;
47760;SDS011;33524;55.434;38.520;2022-09-09T12:55:30;1.00;;;0.90;;
47760;SDS011;33524;55.434;38.520;2022-09-09T12:58:01;1.57;;;0.80;;
47760;SDS011;33524;55.434;38.520;2022-09-09T13:00:33;1.67;;;0.77;;
47760;SDS011;33524;55.434;38.520;2022-09-09T13:03:13;1.60;;;0.65;;
47760;SDS011;33524;55.434;38.520;2022-09-09T13:05:44;0.55;;;0.52;;
47760;SDS011;33524;55.434;38.520;2022-09-09T13:08:14;1.25;;;0.80;;
47760;SDS011;33524;55.434;38.520;2022-09-09T13:13:38;3.15;;;1.30;;
47760;SDS011;33524;55.434;38.520;2022-09-09T13:16:21;1.12;;;0.98;;
47760;SDS011;33524;55.434;38.520;2022-09-09T13:18:50;1.77;;;0.95;;
47760;SDS011;33524;55.434;38.520;2022-09-09T13:21:18;1.87;;;1.23;;
47760;SDS011;33524;55.434;38.520;2022-09-09T13:23:50;1.42;;;1.10;;
47760;SDS011;33524;55.434;38.520;2022-09-09T13:26:20;1.55;;;1.20;;
47760;SDS011;33524;55.434;38.520;2022-09-09T13:28:54;2.58;;;1.10;;
47760;SDS011;33524;55.434;38.520;2022-09-09T13:31:36;2.45;;;1.27;;
47760;SDS011;33524;55.434;38.520;2022-09-09T13:34:26;1.92;;;1.20;;
47760;SDS011;33524;55.434;38.520;2022-09-09T13:37:02;1.35;;;1.00;;
47760;SDS011;33524;55.434;38.520;2022-09-09T13:39:35;1.95;;;1.12;;
47760;SDS011;33524;55.434;38.520;2022-09-09T13:42:05;3.37;;;0.98;;
47760;SDS011;33524;55.434;38.520;2022-09-09T13:44:35;3.53;;;1.70;;
47760;SDS011;33524;55.434;38.520;2022-09-09T13:49:40;6.47;;;1.98;;
47760;SDS011;33524;55.434;38.520;2022-09-09T13:52:10;5.22;;;2.70;;
47760;SDS011;33524;55.434;38.520;2022-09-09T13:54:50;8.90;;;3.05;;
47760;SDS011;33524;55.434;38.520;2022-09-09T13:57:21;7.70;;;2.92;;
47760;SDS011;33524;55.434;38.520;2022-09-09T13:59:52;5.30;;;2.12;;
47760;SDS011;33524;55.434;38.520;2022-09-09T14:02:37;5.75;;;2.00;;
47760;SDS011;33524;55.434;38.520;2022-09-09T14:05:06;3.17;;;1.67;;
47760;SDS011;33524;55.434;38.520;2022-09-09T14:07:34;2.40;;;1.60;;
47760;SDS011;33524;55.434;38.520;2022-09-09T14:10:02;2.97;;;1.85;;
47760;SDS011;33524;55.434;38.520;2022-09-09T14:12:30;1.87;;;1.02;;
47760;SDS011;33524;55.434;38.520;2022-09-09T14:14:58;1.85;;;1.40;;
47760;SDS011;33524;55.434;38.520;2022-09-09T14:17:29;2.35;;;1.20;;
47760;SDS011;33524;55.434;38.520;2022-09-09T14:19:57;1.40;;;1.00;;
47760;SDS011;33524;55.434;38.520;2022-09-09T14:22:25;1.90;;;1.23;;
47760;SDS011;33524;55.434;38.520;2022-09-09T14:24:53;4.57;;;0.95;;
47760;SDS011;33524;55.434;38.520;2022-09-09T14:27:21;1.33;;;1.00;;
47760;SDS011;33524;55.434;38.520;2022-09-09T14:29:49;2.15;;;1.35;;
47760;SDS011;33524;55.434;38.520;2022-09-09T14:32:17;1.48;;;1.00;;
47760;SDS011;33524;55.434;38.520;2022-09-09T14:34:45;1.52;;;1.10;;
47760;SDS011;33524;55.434;38.520;2022-09-09T14:37:13;2.30;;;1.10;;
47760;SDS011;33524;55.434;38.520;2022-09-09T14:39:41;1.25;;;0.90;;
47760;SDS011;33524;55.434;38.520;2022-09-09T14:42:11;1.48;;;1.15;;
47760;SDS011;33524;55.434;38.520;2022-09-09T14:44:39;4.20;;;2.40;;
47760;SDS011;33524;55.434;38.520;2022-09-09T14:47:08;3.28;;;2.12;;
47760;SDS011;33524;55.434;38.520;2022-09-09T14:49:36;2.72;;;1.37;;
47760;SDS011;33524;55.434;38.520;2022-09-09T14:52:08;1.92;;;1.40;;
47760;SDS011;33524;55.434;38.520;2022-09-09T14:54:36;4.10;;;1.80;;
47760;SDS011;33524;55.434;38.520;2022-09-09T14:57:04;2.83;;;1.40;;
47760;SDS011;33524;55.434;38.520;2022-09-09T14:59:32;2.62;;;1.42;;
47760;SDS011;33524;55.434;38.520;2022-09-09T15:02:01;3.45;;;1.62;;
47760;SDS011;33524;55.434;38.520;2022-09-09T15:04:31;4.32;;;2.37;;
47760;SDS011;33524;55.434;38.520;2022-09-09T15:07:00;3.90;;;1.75;;
47760;SDS011;33524;55.434;38.520;2022-09-09T15:09:27;2.50;;;1.40;;
47760;SDS011;33524;55.434;38.520;2022-09-09T15:11:56;2.47;;;1.40;;
47760;SDS011;33524;55.434;38.520;2022-09-09T15:14:24;2.20;;;1.37;;
47760;SDS011;33524;55.434;38.520;2022-09-09T15:16:53;3.33;;;1.70;;
47760;SDS011;33524;55.434;38.520;2022-09-09T15:19:21;2.33;;;1.35;;
47760;SDS011;33524;55.434;38.520;2022-09-09T15:21:49;2.83;;;1.70;;
47760;SDS011;33524;55.434;38.520;2022-09-09T15:24:17;2.00;;;1.50;;
47760;SDS011;33524;55.434;38.520;2022-09-09T15:26:45;6.50;;;3.37;;
47760;SDS011;33524;55.434;38.520;2022-09-09T15:29:13;6.20;;;3.03;;
47760;SDS011;33524;55.434;38.520;2022-09-09T15:31:41;4.18;;;2.50;;
47760;SDS011;33524;55.434;38.520;2022-09-09T15:34:08;6.75;;;2.83;;
47760;SDS011;33524;55.434;38.520;2022-09-09T15:36:37;3.97;;;2.03;;
47760;SDS011;33524;55.434;38.520;2022-09-09T15:39:07;2.72;;;1.42;;
47760;SDS011;33524;55.434;38.520;2022-09-09T15:41:40;2.05;;;1.35;;
47760;SDS011;33524;55.434;38.520;2022-09-09T15:44:12;2.00;;;1.57;;
47760;SDS011;33524;55.434;38.520;2022-09-09T15:46:44;3.37;;;2.10;;
47760;SDS011;33524;55.434;38.520;2022-09-09T15:49:17;4.85;;;2.92;;
47760;SDS011;33524;55.434;38.520;2022-09-09T15:51:53;6.20;;;2.95;;
47760;SDS011;33524;55.434;38.520;2022-09-09T15:56:55;7.50;;;3.65;;
47760;SDS011;33524;55.434;38.520;2022-09-09T15:59:25;7.87;;;4.37;;
47760;SDS011;33524;55.434;38.520;2022-09-09T16:01:55;7.22;;;4.03;;
47760;SDS011;33524;55.434;38.520;2022-09-09T16:04:41;7.65;;;4.18;;
47760;SDS011;33524;55.434;38.520;2022-09-09T16:07:09;10.63;;;5.25;;
47760;SDS011;33524;55.434;38.520;2022-09-09T16:09:37;9.50;;;4.70;;
47760;SDS011;33524;55.434;38.520;2022-09-09T16:12:05;8.07;;;4.40;;
47760;SDS011;33524;55.434;38.520;2022-09-09T16:14:39;10.80;;;5.60;;
47760;SDS011;33524;55.434;38.520;2022-09-09T16:17:07;14.63;;;8.10;;
47760;SDS011;33524;55.434;38.520;2022-09-09T16:19:35;27.35;;;13.27;;
47760;SDS011;33524;55.434;38.520;2022-09-09T16:22:03;23.60;;;8.60;;
47760;SDS011;33524;55.434;38.520;2022-09-09T16:24:32;24.42;;;11.00;;
47760;SDS011;33524;55.434;38.520;2022-09-09T16:26:59;25.37;;;13.90;;
47760;SDS011;33524;55.434;38.520;2022-09-09T16:29:27;30.55;;;14.23;;
47760;SDS011;33524;55.434;38.520;2022-09-09T16:31:55;36.35;;;18.25;;
47760;SDS011;33524;55.434;38.520;2022-09-09T16:34:30;28.52;;;14.00;;
47760;SDS011;33524;55.434;38.520;2022-09-09T16:36:58;22.27;;;12.52;;
47760;SDS011;33524;55.434;38.520;2022-09-09T16:39:26;17.95;;;9.13;;
47760;SDS011;33524;55.434;38.520;2022-09-09T16:41:54;14.70;;;7.80;;
47760;SDS011;33524;55.434;38.520;2022-09-09T16:44:22;13.43;;;7.15;;
47760;SDS011;33524;55.434;38.520;2022-09-09T16:46:50;13.07;;;8.02;;
47760;SDS011;33524;55.434;38.520;2022-09-09T16:49:26;14.75;;;8.73;;
47760;SDS011;33524;55.434;38.520;2022-09-09T16:51:57;12.85;;;8.48;;
47760;SDS011;33524;55.434;38.520;2022-09-09T16:54:26;15.27;;;8.35;;
47760;SDS011;33524;55.434;38.520;2022-09-09T16:56:57;15.63;;;9.10;;
47760;SDS011;33524;55.434;38.520;2022-09-09T16:59:27;15.38;;;9.25;;
47760;SDS011;33524;55.434;38.520;2022-09-09T17:01:54;13.88;;;8.60;;
47760;SDS011;33524;55.434;38.520;2022-09-09T17:04:24;14.02;;;9.80;;
47760;SDS011;33524;55.434;38.520;2022-09-09T17:06:55;17.25;;;8.85;;
47760;SDS011;33524;55.434;38.520;2022-09-09T17:09:24;14.27;;;8.48;;
47760;SDS011;33524;55.434;38.520;2022-09-09T17:11:56;13.70;;;8.60;;
47760;SDS011;33524;55.434;38.520;2022-09-09T17:14:25;15.20;;;8.65;;
47760;SDS011;33524;55.434;38.520;2022-09-09T17:16:53;15.00;;;8.98;;
47760;SDS011;33524;55.434;38.520;2022-09-09T17:19:21;14.43;;;9.90;;
47760;SDS011;33524;55.434;38.520;2022-09-09T17:21:49;17.45;;;10.20;;